Time;durP1;ratioP1;P1;durP2;ratioP2;P2;SDS_P1;SDS_P2;PMS_P1;PMS_P2;Temp;Humidity;BMP_temperature;BMP_pressure;BME280_temperature;BME280_humidity;BME280_pressure;Samples;Min_cycle;Max_cycle;Signal;HPM_P1;HPM_P2
2023/07/19 00:00:17;;;;;;;5.22;3.53;;;17.40;99.90;;;;;;5052883;28;20052;-71
2023/07/19 00:02:42;;;;;;;5.07;3.72;;;17.40;99.90;;;;;;5052841;28;20044;-72
2023/07/19 00:05:09;;;;;;;4.90;3.08;;;17.40;99.90;;;;;;5035498;28;20482;-75
2023/07/19 00:07:35;;;;;;;4.03;3.33;;;17.40;99.90;;;;;;5052996;28;20091;-74
2023/07/19 00:10:01;;;;;;;4.28;3.22;;;17.40;99.90;;;;;;5052792;28;20045;-73
2023/07/19 00:12:27;;;;;;;4.90;4.50;;;17.50;99.90;;;;;;5052778;28;20553;-73
2023/07/19 00:14:52;;;;;;;3.90;3.38;;;17.40;99.90;;;;;;5035736;28;20051;-71
2023/07/19 00:17:18;;;;;;;5.68;4.45;;;17.40;99.90;;;;;;5053227;28;20041;-73
2023/07/19 00:19:44;;;;;;;5.57;3.60;;;17.40;99.90;;;;;;5052430;28;20137;-74
2023/07/19 00:22:09;;;;;;;4.75;3.83;;;17.40;99.90;;;;;;5052657;28;20052;-74
2023/07/19 00:24:35;;;;;;;6.68;3.60;;;17.40;99.90;;;;;;5052583;28;20063;-74
2023/07/19 00:27:01;;;;;;;4.07;3.15;;;17.40;99.90;;;;;;5035736;28;20132;-73
2023/07/19 00:29:26;;;;;;;6.30;4.20;;;17.40;99.90;;;;;;5052519;28;20041;-74
2023/07/19 00:31:52;;;;;;;5.15;4.50;;;17.40;99.90;;;;;;5052148;28;20048;-72
2023/07/19 00:34:18;;;;;;;5.03;4.50;;;17.40;99.90;;;;;;5052564;28;20041;-71
2023/07/19 00:36:43;;;;;;;6.65;3.95;;;17.40;99.90;;;;;;5052429;28;20539;-75
2023/07/19 00:39:09;;;;;;;4.68;4.00;;;17.40;99.90;;;;;;5052502;28;20098;-73
2023/07/19 00:41:35;;;;;;;5.30;3.83;;;17.40;99.90;;;;;;5052350;28;20048;-75
2023/07/19 00:44:03;;;;;;;5.35;4.85;;;17.40;99.90;;;;;;5052285;28;20146;-71
2023/07/19 00:46:29;;;;;;;5.57;4.53;;;17.40;99.90;;;;;;5052323;28;20079;-73
2023/07/19 00:48:56;;;;;;;4.10;3.70;;;17.30;99.90;;;;;;5035146;28;20041;-71
2023/07/19 00:51:22;;;;;;;4.13;3.45;;;17.30;99.90;;;;;;5052244;28;20045;-72
2023/07/19 00:53:49;;;;;;;5.32;3.78;;;17.30;99.90;;;;;;5052645;28;20049;-71
2023/07/19 00:56:15;;;;;;;5.03;4.63;;;17.30;99.90;;;;;;5052338;28;20049;-70
2023/07/19 00:58:43;;;;;;;3.58;3.28;;;17.30;99.90;;;;;;5052198;28;20052;-71
2023/07/19 01:01:09;;;;;;;4.25;3.80;;;17.30;99.90;;;;;;5052690;28;20055;-73
2023/07/19 01:03:35;;;;;;;4.78;4.15;;;17.30;99.90;;;;;;5035144;28;20049;-72
2023/07/19 01:06:03;;;;;;;6.47;3.70;;;17.30;99.90;;;;;;5053079;28;20057;-72
2023/07/19 01:08:29;;;;;;;4.50;4.10;;;17.20;99.90;;;;;;5052742;28;20119;-75
2023/07/19 01:10:55;;;;;;;4.43;4.03;;;17.20;99.90;;;;;;5052275;28;20037;-72
2023/07/19 01:13:21;;;;;;;5.10;3.35;;;17.20;99.90;;;;;;5052398;28;20421;-75
2023/07/19 01:15:47;;;;;;;4.05;3.50;;;17.20;99.90;;;;;;5034551;28;20059;-74
2023/07/19 01:18:13;;;;;;;3.63;3.30;;;17.30;99.90;;;;;;5052155;28;20525;-72
2023/07/19 01:20:38;;;;;;;3.78;3.47;;;17.20;99.90;;;;;;5051967;28;20049;-74
2023/07/19 01:23:05;;;;;;;4.30;3.90;;;17.20;99.90;;;;;;5035118;28;20040;-75
2023/07/19 01:25:30;;;;;;;4.68;4.28;;;17.20;99.90;;;;;;5052553;28;20037;-71
2023/07/19 01:27:56;;;;;;;5.88;4.47;;;17.20;99.90;;;;;;5052037;28;20555;-72
2023/07/19 01:30:22;;;;;;;4.40;4.00;;;17.20;99.90;;;;;;5035096;28;20080;-73
2023/07/19 01:32:48;;;;;;;4.60;4.20;;;17.20;99.90;;;;;;5055689;28;20084;-71
2023/07/19 01:35:14;;;;;;;5.47;3.92;;;17.20;99.90;;;;;;5055844;28;20059;-75
2023/07/19 01:37:40;;;;;;;3.25;2.95;;;17.10;99.90;;;;;;5055623;28;20052;-72
2023/07/19 01:40:06;;;;;;;3.95;3.40;;;17.10;99.90;;;;;;5037813;28;20052;-70
2023/07/19 01:42:32;;;;;;;4.53;4.13;;;17.10;99.90;;;;;;5055720;28;20052;-73
2023/07/19 01:45:01;;;;;;;4.80;3.38;;;17.10;99.90;;;;;;5056501;28;20049;-73
2023/07/19 01:47:27;;;;;;;5.93;3.60;;;17.10;99.90;;;;;;5038527;28;20095;-72
2023/07/19 01:49:53;;;;;;;4.20;3.80;;;17.10;99.90;;;;;;5056447;28;20045;-72
2023/07/19 01:52:20;;;;;;;4.82;3.63;;;17.10;99.90;;;;;;5037703;28;20095;-73
2023/07/19 01:54:46;;;;;;;3.78;2.92;;;17.00;99.90;;;;;;5037735;28;20063;-70
2023/07/19 01:57:11;;;;;;;3.72;3.20;;;17.00;99.90;;;;;;5055074;28;20127;-70
2023/07/19 01:59:37;;;;;;;3.45;3.15;;;17.00;99.90;;;;;;5054936;28;20049;-71
2023/07/19 02:02:03;;;;;;;5.47;3.08;;;17.00;99.90;;;;;;5055612;28;20045;-71
2023/07/19 02:04:29;;;;;;;2.90;2.70;;;17.00;99.90;;;;;;5054940;28;20131;-73
2023/07/19 02:06:55;;;;;;;4.45;3.85;;;17.00;99.90;;;;;;5055420;28;20149;-72
2023/07/19 02:09:22;;;;;;;4.80;3.38;;;17.00;99.90;;;;;;5037520;28;20045;-70
2023/07/19 02:11:47;;;;;;;4.72;3.63;;;17.00;99.90;;;;;;5054754;28;20371;-71
2023/07/19 02:14:13;;;;;;;5.93;3.83;;;17.00;99.90;;;;;;5055627;28;20086;-72
2023/07/19 02:16:39;;;;;;;4.50;3.45;;;17.00;99.90;;;;;;5054989;28;20049;-71
2023/07/19 02:19:06;;;;;;;4.50;3.10;;;17.00;99.90;;;;;;5037890;28;20052;-71
2023/07/19 02:21:32;;;;;;;3.47;2.80;;;17.00;99.90;;;;;;5055462;28;20041;-74
2023/07/19 02:23:58;;;;;;;3.78;3.08;;;16.90;99.90;;;;;;5054801;28;20051;-73
2023/07/19 02:26:24;;;;;;;4.13;3.42;;;16.90;99.90;;;;;;5054748;28;20053;-71
2023/07/19 02:28:51;;;;;;;3.40;3.10;;;16.90;99.90;;;;;;5055012;28;20045;-74
2023/07/19 02:31:16;;;;;;;6.88;3.60;;;16.90;99.90;;;;;;5037095;28;20052;-71
2023/07/19 02:33:42;;;;;;;4.05;3.10;;;17.00;99.90;;;;;;5037301;28;20052;-74
2023/07/19 02:36:12;;;;;;;4.00;2.67;;;16.90;99.90;;;;;;5037323;28;20373;-71
2023/07/19 02:38:37;;;;;;;4.95;4.20;;;16.90;99.90;;;;;;5054593;28;20051;-72
2023/07/19 02:41:03;;;;;;;5.82;4.30;;;16.90;99.90;;;;;;5054447;28;20129;-71
2023/07/19 02:43:29;;;;;;;5.63;3.65;;;16.90;99.90;;;;;;5036169;28;20160;-74
2023/07/19 02:45:55;;;;;;;4.38;3.17;;;16.90;99.90;;;;;;5054038;28;20056;-71
2023/07/19 02:48:22;;;;;;;4.03;3.60;;;16.90;99.90;;;;;;5054336;28;20095;-71
2023/07/19 02:50:49;;;;;;;4.60;3.83;;;16.90;99.90;;;;;;5036352;28;20071;-71
2023/07/19 02:53:15;;;;;;;5.13;4.63;;;16.80;99.90;;;;;;5054342;28;20041;-70
2023/07/19 02:55:45;;;;;;;5.07;3.50;;;16.80;99.90;;;;;;5053891;28;20477;-72
2023/07/19 02:58:14;;;;;;;3.67;3.38;;;16.80;99.90;;;;;;5054281;28;20044;-72
2023/07/19 03:00:41;;;;;;;4.68;3.85;;;16.80;99.90;;;;;;5054106;28;20043;-72
2023/07/19 03:03:08;;;;;;;4.25;3.40;;;16.70;99.90;;;;;;5054518;28;20123;-74
2023/07/19 03:05:35;;;;;;;4.35;3.95;;;16.70;99.90;;;;;;5036342;28;20084;-71
2023/07/19 03:08:04;;;;;;;4.78;4.18;;;16.70;99.90;;;;;;5054046;28;20049;-72
2023/07/19 03:10:29;;;;;;;5.55;4.22;;;16.70;99.90;;;;;;5053880;28;20483;-72
2023/07/19 03:12:55;;;;;;;5.97;3.50;;;16.70;99.90;;;;;;5036286;28;20056;-75
2023/07/19 03:15:21;;;;;;;5.18;3.88;;;16.70;99.90;;;;;;5053769;28;20095;-71
2023/07/19 03:17:47;;;;;;;4.57;3.70;;;16.70;99.90;;;;;;5053909;28;20563;-72
2023/07/19 03:20:12;;;;;;;4.13;3.72;;;16.70;99.90;;;;;;5036111;28;20103;-72
2023/07/19 03:22:38;;;;;;;3.58;3.03;;;16.70;99.90;;;;;;5054269;28;20084;-75
2023/07/19 03:25:05;;;;;;;3.80;3.13;;;16.70;99.90;;;;;;5054040;28;20442;-73
2023/07/19 03:27:31;;;;;;;6.25;4.25;;;16.70;99.90;;;;;;5054056;28;20045;-71
2023/07/19 03:29:56;;;;;;;4.20;3.60;;;16.70;99.90;;;;;;5053766;28;20178;-73
2023/07/19 03:32:22;;;;;;;6.40;4.20;;;16.70;99.90;;;;;;5053502;28;20496;-73
2023/07/19 03:34:48;;;;;;;3.80;3.35;;;16.70;99.90;;;;;;5053790;28;20059;-70
2023/07/19 03:37:14;;;;;;;4.30;3.90;;;16.70;99.90;;;;;;5053460;28;20101;-73
2023/07/19 03:39:40;;;;;;;5.80;4.05;;;16.70;99.90;;;;;;5054315;28;20068;-71
2023/07/19 03:42:07;;;;;;;6.25;3.83;;;16.70;99.90;;;;;;5053502;28;20105;-75
2023/07/19 03:44:32;;;;;;;3.90;3.58;;;16.70;99.90;;;;;;5053784;28;20181;-73
2023/07/19 03:46:58;;;;;;;4.90;4.50;;;16.70;99.90;;;;;;5053213;28;20082;-73
2023/07/19 03:49:24;;;;;;;6.78;5.43;;;16.70;99.90;;;;;;5053294;28;20060;-73
2023/07/19 03:51:49;;;;;;;7.80;5.07;;;17.00;99.90;;;;;;5053252;28;20057;-71
2023/07/19 03:54:17;;;;;;;5.63;4.55;;;16.70;99.90;;;;;;5052192;28;20436;-71
2023/07/19 03:56:43;;;;;;;5.55;4.95;;;16.70;99.90;;;;;;5053121;28;20045;-71
2023/07/19 03:59:09;;;;;;;7.13;4.28;;;16.60;99.90;;;;;;5053073;28;20044;-72
2023/07/19 04:01:36;;;;;;;5.70;4.90;;;16.60;99.90;;;;;;5035286;28;20053;-70
2023/07/19 04:04:03;;;;;;;5.32;4.40;;;16.60;99.90;;;;;;5052931;28;20049;-73
2023/07/19 04:06:29;;;;;;;5.30;4.32;;;16.60;99.90;;;;;;5053840;28;20053;-70
2023/07/19 04:08:55;;;;;;;5.35;4.70;;;16.70;99.90;;;;;;5035243;28;20481;-72
2023/07/19 04:11:21;;;;;;;5.72;5.22;;;16.70;99.90;;;;;;5052635;28;20125;-71
2023/07/19 04:13:47;;;;;;;6.50;5.10;;;16.70;99.90;;;;;;5052716;28;20052;-74
2023/07/19 04:16:12;;;;;;;6.32;5.72;;;16.70;99.90;;;;;;5035348;28;20506;-71
2023/07/19 04:18:38;;;;;;;5.68;4.88;;;16.50;99.90;;;;;;5052695;28;20049;-75
2023/07/19 04:21:04;;;;;;;8.55;6.07;;;16.70;99.90;;;;;;5052680;28;20064;-72
2023/07/19 04:23:30;;;;;;;8.63;6.05;;;16.80;99.90;;;;;;5035665;28;20183;-71
2023/07/19 04:25:56;;;;;;;6.35;5.32;;;16.80;99.90;;;;;;5052645;28;20077;-74
2023/07/19 04:28:22;;;;;;;5.55;5.03;;;16.80;99.90;;;;;;5052603;28;20056;-71
2023/07/19 04:30:47;;;;;;;8.27;5.63;;;16.80;99.90;;;;;;5052876;28;20041;-75
2023/07/19 04:33:15;;;;;;;6.82;4.93;;;16.70;99.90;;;;;;5052623;28;20044;-72
2023/07/19 04:35:41;;;;;;;6.65;4.85;;;16.80;99.90;;;;;;5052855;28;20131;-70
2023/07/19 04:38:07;;;;;;;5.25;4.78;;;16.90;99.90;;;;;;5052701;28;20110;-72
2023/07/19 04:40:32;;;;;;;5.20;4.65;;;16.90;99.90;;;;;;5052411;28;20478;-73
2023/07/19 04:42:59;;;;;;;5.93;5.25;;;16.90;99.90;;;;;;5017912;28;20116;-72
2023/07/19 04:45:25;;;;;;;5.80;5.22;;;17.00;99.90;;;;;;5052419;28;20064;-70
2023/07/19 04:47:51;;;;;;;7.72;5.80;;;17.00;99.90;;;;;;5052925;28;20386;-70
2023/07/19 04:50:16;;;;;;;8.25;5.57;;;17.00;99.90;;;;;;5035186;28;20045;-71
2023/07/19 04:52:45;;;;;;;5.25;4.75;;;17.10;99.90;;;;;;5052527;28;20519;-72
2023/07/19 04:55:11;;;;;;;7.43;5.18;;;17.10;99.90;;;;;;5052812;28;20052;-70
2023/07/19 04:57:38;;;;;;;7.47;4.75;;;17.10;99.90;;;;;;5018381;28;20567;-71
2023/07/19 05:00:05;;;;;;;7.20;5.35;;;17.20;99.90;;;;;;5052527;28;20064;-73
2023/07/19 05:02:31;;;;;;;6.22;5.43;;;17.20;99.90;;;;;;5034640;28;20048;-70
2023/07/19 05:04:56;;;;;;;8.52;5.63;;;17.30;99.90;;;;;;5052505;28;20049;-71
2023/07/19 05:07:22;;;;;;;5.50;4.80;;;17.30;99.90;;;;;;5056194;28;20503;-74
2023/07/19 05:09:48;;;;;;;13.23;6.90;;;17.40;99.90;;;;;;5038890;28;20049;-71
2023/07/19 05:12:14;;;;;;;6.68;6.00;;;17.40;99.90;;;;;;5055746;28;20059;-72
2023/07/19 05:14:39;;;;;;;6.88;5.13;;;17.40;99.90;;;;;;5038596;28;20040;-73
2023/07/19 05:17:05;;;;;;;4.22;3.85;;;17.50;99.90;;;;;;5055977;28;20045;-70
2023/07/19 05:19:31;;;;;;;7.93;6.40;;;17.60;99.90;;;;;;5056073;28;20037;-69
2023/07/19 05:21:56;;;;;;;8.07;6.03;;;17.60;99.90;;;;;;5055933;28;20567;-72
2023/07/19 05:24:22;;;;;;;7.18;5.95;;;17.60;99.90;;;;;;5055703;28;20040;-73
2023/07/19 05:26:48;;;;;;;7.43;6.18;;;17.70;99.90;;;;;;5056696;28;20052;-71
2023/07/19 05:29:14;;;;;;;6.57;5.72;;;17.70;99.90;;;;;;5057296;28;20195;-74
2023/07/19 05:31:40;;;;;;;7.57;5.68;;;17.80;99.90;;;;;;5039143;28;20604;-72
2023/07/19 05:34:07;;;;;;;6.60;5.65;;;17.90;99.90;;;;;;5056263;28;20496;-72
2023/07/19 05:36:34;;;;;;;7.28;5.53;;;17.90;99.90;;;;;;5056178;28;20040;-73
2023/07/19 05:39:01;;;;;;;8.57;4.82;;;17.90;99.90;;;;;;5038747;28;20118;-73
2023/07/19 05:41:27;;;;;;;6.65;5.50;;;18.00;99.90;;;;;;5055613;28;20037;-70
2023/07/19 05:43:53;;;;;;;5.70;4.95;;;18.00;99.90;;;;;;5038012;28;20051;-71
2023/07/19 05:46:19;;;;;;;9.30;5.30;;;18.00;99.90;;;;;;5056055;28;20055;-72
2023/07/19 05:48:45;;;;;;;5.32;4.57;;;18.00;99.90;;;;;;5056046;28;20044;-73
2023/07/19 05:51:11;;;;;;;6.07;4.68;;;18.00;99.90;;;;;;5055475;28;20048;-71
2023/07/19 05:53:37;;;;;;;6.75;4.53;;;18.00;99.90;;;;;;5055386;28;20048;-69
2023/07/19 05:56:03;;;;;;;9.30;5.25;;;18.00;99.90;;;;;;5055895;28;20055;-72
2023/07/19 05:58:30;;;;;;;6.88;5.75;;;18.00;99.90;;;;;;5055292;28;20044;-72
2023/07/19 06:00:56;;;;;;;7.03;4.47;;;18.00;99.90;;;;;;5055404;28;20486;-71
2023/07/19 06:03:22;;;;;;;8.02;4.68;;;18.00;99.90;;;;;;5055104;28;20045;-70
2023/07/19 06:05:47;;;;;;;8.88;5.13;;;18.00;99.90;;;;;;5037594;28;20048;-73
2023/07/19 06:08:13;;;;;;;7.03;4.95;;;18.00;99.90;;;;;;5055527;28;20088;-71
2023/07/19 06:10:39;;;;;;;6.63;5.55;;;18.00;99.90;;;;;;5055560;28;20071;-71
2023/07/19 06:13:06;;;;;;;6.10;4.30;;;18.10;99.90;;;;;;5055265;28;20342;-71
2023/07/19 06:15:32;;;;;;;5.40;4.35;;;18.10;99.90;;;;;;5037675;28;20052;-71
2023/07/19 06:17:59;;;;;;;6.22;5.18;;;18.10;99.90;;;;;;5054183;28;20088;-72
2023/07/19 06:20:25;;;;;;;8.32;6.70;;;18.00;99.90;;;;;;5055677;28;20049;-70
2023/07/19 06:22:50;;;;;;;6.13;5.13;;;18.00;99.90;;;;;;5054890;28;20512;-76
2023/07/19 06:25:16;;;;;;;8.38;6.35;;;18.00;99.90;;;;;;5037872;28;20056;-73
2023/07/19 06:27:42;;;;;;;6.00;4.78;;;18.00;99.90;;;;;;5054804;28;20471;-71
2023/07/19 06:30:11;;;;;;;6.68;5.43;;;18.10;99.90;;;;;;5036964;28;20120;-74
2023/07/19 06:32:37;;;;;;;6.90;5.60;;;18.10;99.90;;;;;;5055291;28;20064;-72
2023/07/19 06:35:04;;;;;;;6.43;5.35;;;18.10;99.90;;;;;;5054612;28;20045;-73
2023/07/19 06:37:32;;;;;;;6.80;4.38;;;18.00;99.90;;;;;;5054307;28;20572;-73
2023/07/19 06:40:00;;;;;;;7.22;6.30;;;18.00;99.90;;;;;;5054616;28;20062;-71
2023/07/19 06:42:25;;;;;;;7.10;5.15;;;18.00;99.90;;;;;;5036853;28;20124;-73
2023/07/19 06:44:53;;;;;;;8.10;5.57;;;18.00;99.90;;;;;;5055045;28;20080;-71
2023/07/19 06:47:18;;;;;;;7.78;5.38;;;17.90;99.90;;;;;;5054740;28;20045;-75
2023/07/19 06:49:44;;;;;;;5.78;5.07;;;17.90;99.90;;;;;;5054354;28;20055;-75
2023/07/19 06:52:10;;;;;;;6.75;4.57;;;17.90;99.90;;;;;;5054837;28;20049;-71
2023/07/19 06:54:36;;;;;;;7.28;5.15;;;17.90;99.90;;;;;;5054563;28;20067;-70
2023/07/19 06:57:02;;;;;;;5.47;4.45;;;17.90;99.90;;;;;;5054429;28;20045;-69
2023/07/19 06:59:28;;;;;;;5.90;4.32;;;17.90;99.90;;;;;;5036922;28;20094;-70
2023/07/19 07:01:54;;;;;;;5.95;4.63;;;18.00;99.90;;;;;;5054170;28;20052;-70
2023/07/19 07:04:20;;;;;;;8.02;5.15;;;18.00;99.90;;;;;;5036075;28;20052;-69
2023/07/19 07:06:45;;;;;;;5.53;4.60;;;18.10;99.90;;;;;;5036328;28;20098;-71
2023/07/19 07:09:14;;;;;;;6.68;4.25;;;18.10;99.90;;;;;;5036210;28;20056;-71
2023/07/19 07:11:40;;;;;;;8.80;5.15;;;18.20;99.90;;;;;;5036424;28;20126;-72
2023/07/19 07:14:05;;;;;;;7.13;4.47;;;18.30;99.90;;;;;;5054385;28;20093;-70
2023/07/19 07:16:31;;;;;;;7.65;5.25;;;18.40;99.90;;;;;;5053715;28;20534;-70
2023/07/19 07:18:57;;;;;;;5.88;4.65;;;18.40;99.90;;;;;;5053913;28;20094;-70
2023/07/19 07:21:23;;;;;;;5.82;5.07;;;18.40;99.90;;;;;;5053635;28;20512;-71
2023/07/19 07:23:48;;;;;;;6.18;4.63;;;18.50;99.90;;;;;;5035866;28;20127;-73
2023/07/19 07:26:14;;;;;;;6.65;4.88;;;18.50;99.90;;;;;;5053401;28;20059;-71
2023/07/19 07:28:40;;;;;;;5.25;4.43;;;18.60;99.90;;;;;;5053488;28;20053;-71
2023/07/19 07:31:08;;;;;;;5.32;3.90;;;18.60;99.90;;;;;;5053990;28;20458;-69
2023/07/19 07:33:35;;;;;;;6.00;4.63;;;18.60;99.90;;;;;;5036044;28;20132;-75
2023/07/19 07:36:01;;;;;;;5.28;4.78;;;18.70;99.90;;;;;;5035616;28;20049;-71
2023/07/19 07:38:27;;;;;;;5.35;4.10;;;18.70;99.90;;;;;;5053305;28;20040;-71
2023/07/19 07:41:06;;;;;;;7.20;3.13;;;18.80;99.90;;;;;;5053062;28;20449;-72
2023/07/19 07:43:32;;;;;;;8.05;4.25;;;18.80;99.90;;;;;;5036680;28;20055;-71
2023/07/19 07:45:58;;;;;;;3.95;3.47;;;18.90;99.90;;;;;;5035370;28;20106;-73
2023/07/19 07:48:24;;;;;;;6.55;3.53;;;18.90;99.90;;;;;;5052945;28;20040;-72
2023/07/19 07:50:52;;;;;;;3.38;3.08;;;19.00;99.90;;;;;;5035548;28;20057;-73
2023/07/19 07:53:18;;;;;;;4.32;3.38;;;19.10;99.90;;;;;;5052880;28;20105;-72
2023/07/19 07:55:44;;;;;;;3.25;2.80;;;19.20;99.90;;;;;;5052864;28;20045;-73
2023/07/19 07:58:11;;;;;;;5.03;3.15;;;19.30;99.90;;;;;;5052691;28;20052;-74
2023/07/19 08:00:37;;;;;;;5.50;3.03;;;19.40;99.90;;;;;;5035252;28;20064;-73
2023/07/19 08:03:02;;;;;;;7.45;2.88;;;19.60;99.90;;;;;;5052421;28;20049;-75
2023/07/19 08:05:29;;;;;;;2.75;2.47;;;19.80;99.90;;;;;;5052864;28;20061;-74
2023/07/19 08:07:54;;;;;;;3.28;2.45;;;20.00;99.90;;;;;;5053305;28;20052;-74
2023/07/19 08:10:20;;;;;;;3.13;2.70;;;19.90;99.90;;;;;;5035299;28;20457;-76
2023/07/19 08:12:47;;;;;;;3.90;2.33;;;20.00;99.90;;;;;;5052731;28;20051;-71
2023/07/19 08:15:13;;;;;;;3.47;2.50;;;20.00;99.90;;;;;;5035005;28;20529;-73
2023/07/19 08:17:39;;;;;;;4.68;2.95;;;20.20;99.90;;;;;;5052311;28;20080;-76
2023/07/19 08:20:09;;;;;;;3.38;2.33;;;20.20;99.90;;;;;;5034949;28;20056;-73
2023/07/19 08:22:36;;;;;;;2.30;1.92;;;20.50;99.90;;;;;;5035235;28;20091;-74
2023/07/19 08:25:02;;;;;;;4.53;2.47;;;20.50;99.90;;;;;;5052493;28;20058;-72
2023/07/19 08:27:27;;;;;;;6.45;2.58;;;20.70;99.90;;;;;;5052434;28;20478;-76
2023/07/19 08:29:53;;;;;;;3.00;1.90;;;20.70;99.90;;;;;;5052611;28;20060;-75
2023/07/19 08:32:19;;;;;;;6.00;1.90;;;20.80;99.90;;;;;;5052570;28;20120;-74
2023/07/19 08:34:45;;;;;;;4.40;2.28;;;20.80;99.90;;;;;;5034801;28;20164;-72
2023/07/19 08:37:11;;;;;;;1.40;1.30;;;20.90;99.90;;;;;;5052301;28;20077;-71
2023/07/19 08:39:37;;;;;;;3.50;1.70;;;21.00;99.90;;;;;;5051670;28;20049;-73
2023/07/19 08:42:03;;;;;;;3.30;1.48;;;21.10;99.90;;;;;;5052434;28;20052;-73
2023/07/19 08:44:29;;;;;;;3.38;1.40;;;21.10;99.90;;;;;;5052071;28;20474;-74
2023/07/19 08:46:55;;;;;;;3.35;1.40;;;21.10;99.90;;;;;;5052581;28;20049;-72
2023/07/19 08:49:21;;;;;;;1.40;1.30;;;20.90;99.90;;;;;;5035286;28;20087;-72
2023/07/19 08:51:47;;;;;;;2.03;1.70;;;20.80;99.90;;;;;;5035123;28;20048;-73
2023/07/19 08:54:13;;;;;;;2.15;1.92;;;20.70;99.90;;;;;;5034582;28;20056;-71
2023/07/19 08:56:40;;;;;;;1.90;1.40;;;20.60;99.90;;;;;;5034613;28;20095;-73
2023/07/19 08:59:07;;;;;;;2.22;1.55;;;20.40;99.90;;;;;;5035223;28;20461;-71
2023/07/19 09:01:33;;;;;;;2.33;1.30;;;20.20;99.90;;;;;;5052227;28;20067;-72
2023/07/19 09:03:59;;;;;;;3.60;2.00;;;20.30;99.90;;;;;;5052251;28;20068;-75
2023/07/19 09:06:27;;;;;;;3.80;1.50;;;20.30;99.90;;;;;;5052340;28;20481;-73
2023/07/19 09:08:55;;;;;;;1.33;1.23;;;20.40;99.90;;;;;;5052504;28;20465;-75
2023/07/19 09:11:24;;;;;;;2.05;1.48;;;20.50;99.90;;;;;;5053158;28;20045;-71
2023/07/19 09:13:55;;;;;;;3.80;1.50;;;20.70;99.90;;;;;;5054633;28;20045;-74
2023/07/19 09:16:28;;;;;;;2.50;1.50;;;20.90;99.90;;;;;;5054909;28;20056;-74
2023/07/19 09:18:56;;;;;;;4.93;1.60;;;21.00;99.90;;;;;;5053261;28;20163;-73
2023/07/19 09:21:40;;;;;;;2.67;1.45;;;21.90;99.90;;;;;;5052477;28;20041;-73
2023/07/19 09:24:10;;;;;;;1.95;1.25;;;23.10;99.40;;;;;;5051972;28;20055;-74
2023/07/19 09:26:55;;;;;;;2.03;1.60;;;24.10;98.80;;;;;;5034294;28;20378;-74
2023/07/19 09:29:22;;;;;;;2.30;1.67;;;24.90;96.20;;;;;;5034331;28;20122;-73
2023/07/19 09:31:57;;;;;;;1.35;1.25;;;25.50;98.00;;;;;;5051479;28;20429;-74
2023/07/19 09:34:26;;;;;;;1.98;1.02;;;26.10;97.20;;;;;;5052275;28;20568;-73
2023/07/19 09:36:52;;;;;;;1.83;1.27;;;26.60;97.40;;;;;;5052407;28;20077;-71
2023/07/19 09:39:19;;;;;;;3.60;1.23;;;27.00;97.10;;;;;;5052207;28;20076;-72
2023/07/19 09:41:45;;;;;;;1.25;1.17;;;27.30;96.70;;;;;;5051863;28;20135;-74
2023/07/19 09:44:13;;;;;;;1.23;1.05;;;27.40;96.00;;;;;;5051845;28;20049;-73
2023/07/19 09:46:39;;;;;;;3.75;1.05;;;27.00;92.80;;;;;;5051881;28;20152;-76
2023/07/19 09:49:05;;;;;;;1.38;0.90;;;26.70;94.80;;;;;;5033777;28;20085;-76
2023/07/19 09:51:33;;;;;;;2.15;1.02;;;26.10;94.80;;;;;;5052874;28;20051;-75
2023/07/19 09:54:10;;;;;;;1.75;0.90;;;25.90;94.80;;;;;;5055258;28;20040;-73
2023/07/19 09:56:37;;;;;;;2.03;1.02;;;25.50;93.80;;;;;;5037885;28;20044;-75
2023/07/19 09:59:06;;;;;;;2.50;0.93;;;24.80;94.60;;;;;;5055058;28;20045;-75
2023/07/19 10:01:34;;;;;;;1.73;1.00;;;24.60;94.80;;;;;;5037946;28;20044;-75
2023/07/19 10:03:59;;;;;;;1.17;0.85;;;24.10;94.90;;;;;;5037752;28;20053;-75
2023/07/19 10:06:35;;;;;;;1.63;1.52;;;23.80;95.10;;;;;;5037432;28;20053;-75
2023/07/19 10:09:23;;;;;;;2.45;1.25;;;23.30;94.80;;;;;;5055084;28;20045;-74
2023/07/19 10:11:52;;;;;;;1.52;1.20;;;22.80;94.60;;;;;;5055170;28;20102;-75
2023/07/19 10:14:26;;;;;;;3.35;1.30;;;22.50;95.70;;;;;;5054566;28;20044;-73
2023/07/19 10:17:05;;;;;;;4.00;1.50;;;22.30;96.00;;;;;;5055284;28;20053;-73
2023/07/19 10:19:31;;;;;;;2.92;1.50;;;22.20;96.40;;;;;;5054844;28;20048;-72
2023/07/19 10:22:04;;;;;;;1.55;1.45;;;22.20;96.50;;;;;;5054772;28;20041;-75
2023/07/19 10:24:37;;;;;;;2.00;1.50;;;22.30;96.40;;;;;;5054840;28;20183;-75
2023/07/19 10:27:05;;;;;;;1.48;1.25;;;22.60;96.60;;;;;;5037098;28;20049;-75
2023/07/19 10:29:44;;;;;;;1.40;1.30;;;23.20;96.50;;;;;;5054338;28;20536;-76
2023/07/19 10:32:11;;;;;;;4.10;1.73;;;24.00;95.60;;;;;;5054890;28;20112;-74
2023/07/19 10:34:37;;;;;;;4.10;1.85;;;23.80;95.50;;;;;;5054726;28;20037;-74
2023/07/19 10:37:04;;;;;;;3.20;1.70;;;23.40;96.00;;;;;;5054733;28;20056;-73
2023/07/19 10:39:31;;;;;;;2.13;1.40;;;22.90;96.20;;;;;;5054414;28;20056;-73
2023/07/19 10:41:57;;;;;;;4.28;1.70;;;22.40;96.90;;;;;;5054239;28;20087;-74
2023/07/19 10:44:26;;;;;;;3.20;1.70;;;22.20;97.50;;;;;;5054491;28;20438;-75
2023/07/19 10:46:55;;;;;;;2.53;1.65;;;21.90;97.70;;;;;;5054186;28;20052;-72
2023/07/19 10:49:24;;;;;;;2.88;1.65;;;21.70;98.00;;;;;;5036490;28;20499;-73
2023/07/19 10:51:54;;;;;;;4.82;1.80;;;21.60;98.10;;;;;;5053744;28;20495;-77
2023/07/19 10:54:20;;;;;;;3.22;1.67;;;21.50;98.30;;;;;;5054125;28;20056;-72
2023/07/19 10:56:53;;;;;;;3.92;1.75;;;21.70;98.50;;;;;;5054089;28;20041;-77
2023/07/19 10:59:19;;;;;;;2.75;1.60;;;21.60;98.50;;;;;;5036992;28;20044;-76
2023/07/19 11:01:48;;;;;;;3.00;2.22;;;22.10;98.40;;;;;;5053881;28;20487;-74
2023/07/19 11:04:14;;;;;;;3.92;1.73;;;22.50;98.20;;;;;;5053218;28;20084;-76
2023/07/19 11:06:56;;;;;;;3.90;2.08;;;23.10;97.80;;;;;;5036682;28;20053;-73
2023/07/19 11:09:22;;;;;;;4.83;1.70;;;23.00;96.50;;;;;;5036612;28;20053;-74
2023/07/19 11:11:53;;;;;;;2.70;1.80;;;22.80;97.20;;;;;;5053917;28;20045;-72
2023/07/19 11:14:32;;;;;;;2.60;1.40;;;22.90;97.10;;;;;;5054403;28;20134;-75
2023/07/19 11:16:59;;;;;;;3.10;1.90;;;22.80;96.80;;;;;;5036150;28;20112;-74
2023/07/19 11:19:36;;;;;;;3.05;1.58;;;22.80;97.00;;;;;;5053547;28;20045;-78
2023/07/19 11:22:03;;;;;;;2.13;1.40;;;22.90;96.80;;;;;;5036226;28;20082;-75
2023/07/19 11:24:39;;;;;;;2.75;1.30;;;23.10;96.60;;;;;;5053488;28;20048;-72
2023/07/19 11:27:06;;;;;;;3.35;1.52;;;23.10;96.40;;;;;;5054064;28;20095;-77
2023/07/19 11:29:33;;;;;;;5.28;1.77;;;23.00;96.20;;;;;;5052851;28;20490;-72
2023/07/19 11:32:20;;;;;;;2.20;1.15;;;22.60;96.10;;;;;;5053323;28;20045;-74
2023/07/19 11:34:46;;;;;;;2.22;1.05;;;22.20;96.30;;;;;;5053120;28;20091;-73
2023/07/19 11:37:38;;;;;;;3.53;1.52;;;22.10;96.80;;;;;;5053274;28;20073;-75
2023/07/19 11:40:05;;;;;;;1.88;1.45;;;21.90;97.10;;;;;;5044096;28;20067;-73
2023/07/19 11:42:55;;;;;;;1.88;1.38;;;21.70;97.50;;;;;;5053081;28;20043;-74
2023/07/19 11:45:26;;;;;;;1.80;1.10;;;22.10;97.60;;;;;;5052825;28;20051;-76
2023/07/19 11:47:55;;;;;;;3.10;1.40;;;22.10;96.90;;;;;;5036122;28;20045;-73
2023/07/19 11:50:22;;;;;;;1.25;0.95;;;22.00;96.70;;;;;;5053076;28;20061;-74
2023/07/19 11:52:54;;;;;;;2.53;1.10;;;22.10;97.30;;;;;;5052983;28;20093;-75
2023/07/19 11:55:20;;;;;;;1.50;1.10;;;22.60;97.00;;;;;;5052925;28;20063;-76
2023/07/19 11:57:49;;;;;;;2.25;1.38;;;22.90;96.00;;;;;;5053337;28;20044;-72
2023/07/19 12:00:16;;;;;;;2.03;1.15;;;23.00;95.70;;;;;;5052834;28;20052;-75
2023/07/19 12:02:46;;;;;;;1.55;1.30;;;22.60;95.90;;;;;;5035852;28;20052;-74
2023/07/19 12:05:20;;;;;;;2.05;1.10;;;22.40;96.20;;;;;;5031163;28;20069;-70
2023/07/19 12:07:46;;;;;;;3.08;1.35;;;22.50;96.20;;;;;;5032570;28;20509;-73
2023/07/19 12:10:15;;;;;;;1.83;1.73;;;22.80;96.40;;;;;;5033150;28;20053;-74
2023/07/19 12:12:41;;;;;;;2.05;1.05;;;23.00;96.00;;;;;;5032793;28;20041;-73
2023/07/19 12:15:09;;;;;;;2.42;1.10;;;23.00;95.40;;;;;;5031937;28;20389;-77
2023/07/19 12:17:36;;;;;;;1.98;1.40;;;22.90;94.80;;;;;;5032719;28;20431;-75
2023/07/19 12:20:03;;;;;;;1.40;1.25;;;22.70;95.40;;;;;;5033072;28;20092;-74
2023/07/19 12:22:30;;;;;;;4.20;1.23;;;22.50;95.50;;;;;;5033120;28;20053;-77
2023/07/19 12:24:58;;;;;;;1.83;1.23;;;22.00;95.90;;;;;;5015791;28;20099;-71
2023/07/19 12:27:25;;;;;;;2.83;1.15;;;21.90;96.00;;;;;;5032775;28;20077;-75
2023/07/19 12:29:51;;;;;;;1.85;1.27;;;21.90;96.20;;;;;;5033158;28;20467;-83
2023/07/19 12:32:17;;;;;;;8.90;1.63;;;21.80;96.30;;;;;;5031464;28;20072;-73
2023/07/19 12:34:45;;;;;;;2.28;1.27;;;21.80;96.60;;;;;;5031540;28;20048;-76
2023/07/19 12:37:14;;;;;;;3.83;1.40;;;21.80;96.50;;;;;;5030939;28;20152;-74
2023/07/19 12:39:41;;;;;;;3.40;1.13;;;21.80;96.40;;;;;;5032159;28;20060;-74
2023/07/19 12:42:07;;;;;;;2.30;1.25;;;22.10;96.30;;;;;;5032492;28;20042;-77
2023/07/19 12:44:34;;;;;;;2.42;1.40;;;22.40;95.90;;;;;;5032463;28;20547;-75
2023/07/19 12:47:00;;;;;;;1.70;1.13;;;22.70;95.80;;;;;;5032463;28;20479;-75